POGODA: Poland

Lotnisko: Warszawa-Okecie

METAR KOD: EPWA


METAR: EPWA 022330Z 05009KT CAVOK 13/10 Q1023 NOSIG


BLOK
Pogoda METAR
022330Z
Dzien: 02, Godzina: 23:30 UTC.
05009KT
Wiatr z kierunku 050, o predkosci 17 km/h
CAVOK
Widzialnosc pow. 10 km, brak chmur pon. 1500 m., brak CB, brak opadow, burz i innych
13/10
Temperatura: powietrze 13°C, punkt rosy 10°C . Wilgotnosc wzgledna 77 %
Q1023
Cisnienie: 1023 hPa
NOSIG
Pogoda bedzie bez zmian

Pogoda na innym lotnisku

Pogoda Gdansk-Rebiechowo WEATHER Poland  
Pogoda Katowice WEATHER Poland  
Pogoda Krakow WEATHER Poland  
Pogoda Poznan WEATHER Poland  
Pogoda Rzeszow-Jasionka WEATHER Poland  
Pogoda Szczecin WEATHER Poland  
Pogoda Warszawa-Okecie WEATHER Poland  
Pogoda Wroclaw Ii WEATHER Poland  

Pogoda w inny kraju

Strona startowa

(C) by GREGOR 2007
Ogłoszenia Towarzyskie